sensor_id;sensor_type;location;lat;lon;timestamp;temperature;humidity
8332;DHT22;4203;48.144;14.118;2023-05-10T00:01:10;10.50;99.90
8332;DHT22;4203;48.144;14.118;2023-05-10T00:03:37;10.40;99.90
8332;DHT22;4203;48.144;14.118;2023-05-10T00:06:04;10.40;99.90
8332;DHT22;4203;48.144;14.118;2023-05-10T00:08:32;10.40;99.90
8332;DHT22;4203;48.144;14.118;2023-05-10T00:11:00;10.40;99.90
8332;DHT22;4203;48.144;14.118;2023-05-10T00:13:28;10.40;99.90
8332;DHT22;4203;48.144;14.118;2023-05-10T00:15:55;10.40;99.90
8332;DHT22;4203;48.144;14.118;2023-05-10T00:18:22;10.30;99.90
8332;DHT22;4203;48.144;14.118;2023-05-10T00:20:49;10.30;99.90
8332;DHT22;4203;48.144;14.118;2023-05-10T00:23:16;10.20;99.90
8332;DHT22;4203;48.144;14.118;2023-05-10T00:25:44;10.20;99.90
8332;DHT22;4203;48.144;14.118;2023-05-10T00:28:12;10.20;99.90
8332;DHT22;4203;48.144;14.118;2023-05-10T00:30:39;10.10;99.90
8332;DHT22;4203;48.144;14.118;2023-05-10T00:33:06;10.10;99.90
8332;DHT22;4203;48.144;14.118;2023-05-10T00:35:33;10.00;99.90
8332;DHT22;4203;48.144;14.118;2023-05-10T00:38:00;10.00;99.90
8332;DHT22;4203;48.144;14.118;2023-05-10T00:40:28;9.90;99.90
8332;DHT22;4203;48.144;14.118;2023-05-10T00:42:56;9.80;99.90
8332;DHT22;4203;48.144;14.118;2023-05-10T00:45:25;9.70;99.90
8332;DHT22;4203;48.144;14.118;2023-05-10T00:47:52;9.60;99.90
8332;DHT22;4203;48.144;14.118;2023-05-10T00:50:21;9.50;99.90
8332;DHT22;4203;48.144;14.118;2023-05-10T00:52:49;9.40;99.90
8332;DHT22;4203;48.144;14.118;2023-05-10T00:55:18;9.30;99.90
8332;DHT22;4203;48.144;14.118;2023-05-10T00:57:45;9.20;99.90
8332;DHT22;4203;48.144;14.118;2023-05-10T01:00:13;9.20;99.90
8332;DHT22;4203;48.144;14.118;2023-05-10T01:02:45;9.10;99.90
8332;DHT22;4203;48.144;14.118;2023-05-10T01:05:13;9.10;99.90
8332;DHT22;4203;48.144;14.118;2023-05-10T01:07:40;9.00;99.90
8332;DHT22;4203;48.144;14.118;2023-05-10T01:10:09;8.90;99.90
8332;DHT22;4203;48.144;14.118;2023-05-10T01:12:39;8.90;99.90
8332;DHT22;4203;48.144;14.118;2023-05-10T01:15:08;8.80;99.90
8332;DHT22;4203;48.144;14.118;2023-05-10T01:17:38;8.50;99.90
8332;DHT22;4203;48.144;14.118;2023-05-10T01:20:09;8.30;99.90
8332;DHT22;4203;48.144;14.118;2023-05-10T01:28:44;8.20;99.90
8332;DHT22;4203;48.144;14.118;2023-05-10T01:31:22;8.30;99.90
8332;DHT22;4203;48.144;14.118;2023-05-10T01:33:55;8.30;99.90
8332;DHT22;4203;48.144;14.118;2023-05-10T01:36:28;8.20;99.90
8332;DHT22;4203;48.144;14.118;2023-05-10T01:38:59;8.20;99.90
8332;DHT22;4203;48.144;14.118;2023-05-10T01:41:33;8.10;99.90
8332;DHT22;4203;48.144;14.118;2023-05-10T01:44:08;7.80;99.90
8332;DHT22;4203;48.144;14.118;2023-05-10T01:46:38;7.60;99.90
8332;DHT22;4203;48.144;14.118;2023-05-10T01:49:09;7.60;99.90
8332;DHT22;4203;48.144;14.118;2023-05-10T01:51:39;7.60;99.90
8332;DHT22;4203;48.144;14.118;2023-05-10T01:54:08;7.60;99.90
8332;DHT22;4203;48.144;14.118;2023-05-10T01:56:38;7.60;99.90
8332;DHT22;4203;48.144;14.118;2023-05-10T01:59:12;7.60;99.90
8332;DHT22;4203;48.144;14.118;2023-05-10T02:01:40;7.60;99.90
8332;DHT22;4203;48.144;14.118;2023-05-10T02:04:10;7.50;99.90
8332;DHT22;4203;48.144;14.118;2023-05-10T02:06:39;7.50;99.90
8332;DHT22;4203;48.144;14.118;2023-05-10T02:09:07;7.40;99.90
8332;DHT22;4203;48.144;14.118;2023-05-10T02:11:38;7.40;99.90
8332;DHT22;4203;48.144;14.118;2023-05-10T02:14:08;7.50;99.90
8332;DHT22;4203;48.144;14.118;2023-05-10T02:16:36;7.50;99.90
8332;DHT22;4203;48.144;14.118;2023-05-10T02:19:05;7.50;99.90
8332;DHT22;4203;48.144;14.118;2023-05-10T02:21:36;7.60;99.90
8332;DHT22;4203;48.144;14.118;2023-05-10T02:24:05;7.60;99.90
8332;DHT22;4203;48.144;14.118;2023-05-10T02:26:33;7.60;99.90
8332;DHT22;4203;48.144;14.118;2023-05-10T02:29:01;7.70;99.90
8332;DHT22;4203;48.144;14.118;2023-05-10T02:31:31;7.70;99.90
8332;DHT22;4203;48.144;14.118;2023-05-10T02:33:59;7.80;99.90
8332;DHT22;4203;48.144;14.118;2023-05-10T02:36:27;7.80;99.90
8332;DHT22;4203;48.144;14.118;2023-05-10T02:38:58;7.80;99.90
8332;DHT22;4203;48.144;14.118;2023-05-10T02:41:26;7.80;99.90
8332;DHT22;4203;48.144;14.118;2023-05-10T02:43:57;7.90;99.90
8332;DHT22;4203;48.144;14.118;2023-05-10T02:46:26;7.90;99.90
8332;DHT22;4203;48.144;14.118;2023-05-10T02:48:53;8.10;99.90
8332;DHT22;4203;48.144;14.118;2023-05-10T02:51:23;8.00;99.90
8332;DHT22;4203;48.144;14.118;2023-05-10T02:53:53;8.00;99.90
8332;DHT22;4203;48.144;14.118;2023-05-10T02:56:25;8.00;99.90
8332;DHT22;4203;48.144;14.118;2023-05-10T02:58:55;8.00;99.90
8332;DHT22;4203;48.144;14.118;2023-05-10T03:01:23;8.00;99.90
8332;DHT22;4203;48.144;14.118;2023-05-10T03:03:50;8.10;99.90
8332;DHT22;4203;48.144;14.118;2023-05-10T03:06:17;8.20;99.90
8332;DHT22;4203;48.144;14.118;2023-05-10T03:08:44;8.20;99.90
8332;DHT22;4203;48.144;14.118;2023-05-10T03:11:27;8.20;99.90
8332;DHT22;4203;48.144;14.118;2023-05-10T03:14:07;8.10;99.90
8332;DHT22;4203;48.144;14.118;2023-05-10T03:16:42;8.10;99.90
8332;DHT22;4203;48.144;14.118;2023-05-10T03:19:16;8.10;99.90
8332;DHT22;4203;48.144;14.118;2023-05-10T03:21:49;8.20;99.90
8332;DHT22;4203;48.144;14.118;2023-05-10T03:24:20;8.30;99.90
8332;DHT22;4203;48.144;14.118;2023-05-10T03:26:49;8.40;99.90
8332;DHT22;4203;48.144;14.118;2023-05-10T03:29:19;8.50;99.90
8332;DHT22;4203;48.144;14.118;2023-05-10T03:31:47;8.50;99.90
8332;DHT22;4203;48.144;14.118;2023-05-10T03:34:14;8.60;99.90
8332;DHT22;4203;48.144;14.118;2023-05-10T03:36:42;8.60;99.90
8332;DHT22;4203;48.144;14.118;2023-05-10T03:39:09;8.70;99.90
8332;DHT22;4203;48.144;14.118;2023-05-10T03:41:36;8.70;99.90
8332;DHT22;4203;48.144;14.118;2023-05-10T03:44:05;8.80;99.90
8332;DHT22;4203;48.144;14.118;2023-05-10T03:46:32;8.80;99.90
8332;DHT22;4203;48.144;14.118;2023-05-10T03:48:59;8.90;99.90
8332;DHT22;4203;48.144;14.118;2023-05-10T03:51:26;9.00;99.90
8332;DHT22;4203;48.144;14.118;2023-05-10T03:53:53;9.00;99.90
8332;DHT22;4203;48.144;14.118;2023-05-10T03:56:21;9.10;99.90
8332;DHT22;4203;48.144;14.118;2023-05-10T03:58:48;9.20;99.90
8332;DHT22;4203;48.144;14.118;2023-05-10T04:01:17;9.30;99.90
8332;DHT22;4203;48.144;14.118;2023-05-10T04:03:44;9.40;99.90
8332;DHT22;4203;48.144;14.118;2023-05-10T04:06:11;9.50;99.90
8332;DHT22;4203;48.144;14.118;2023-05-10T04:08:38;9.50;99.90
8332;DHT22;4203;48.144;14.118;2023-05-10T04:11:06;9.50;99.90
8332;DHT22;4203;48.144;14.118;2023-05-10T04:13:33;9.50;99.90
8332;DHT22;4203;48.144;14.118;2023-05-10T04:16:00;9.60;99.90
8332;DHT22;4203;48.144;14.118;2023-05-10T04:18:29;9.70;99.90
8332;DHT22;4203;48.144;14.118;2023-05-10T04:20:56;9.70;99.90
8332;DHT22;4203;48.144;14.118;2023-05-10T04:23:24;9.80;99.90
8332;DHT22;4203;48.144;14.118;2023-05-10T04:25:51;9.80;99.90
8332;DHT22;4203;48.144;14.118;2023-05-10T04:28:18;9.90;99.90
8332;DHT22;4203;48.144;14.118;2023-05-10T04:30:46;10.00;99.90
8332;DHT22;4203;48.144;14.118;2023-05-10T04:33:13;10.10;99.90
8332;DHT22;4203;48.144;14.118;2023-05-10T04:35:42;10.30;99.90
8332;DHT22;4203;48.144;14.118;2023-05-10T04:38:10;10.40;99.90
8332;DHT22;4203;48.144;14.118;2023-05-10T04:40:37;10.50;99.90
8332;DHT22;4203;48.144;14.118;2023-05-10T04:43:04;10.60;99.90
8332;DHT22;4203;48.144;14.118;2023-05-10T04:45:31;10.70;99.90
8332;DHT22;4203;48.144;14.118;2023-05-10T04:47:58;10.70;99.90
8332;DHT22;4203;48.144;14.118;2023-05-10T04:50:27;10.80;99.90
8332;DHT22;4203;48.144;14.118;2023-05-10T04:52:55;10.80;99.90
8332;DHT22;4203;48.144;14.118;2023-05-10T04:55:22;10.80;99.90
8332;DHT22;4203;48.144;14.118;2023-05-10T04:57:50;10.90;99.90
8332;DHT22;4203;48.144;14.118;2023-05-10T05:00:17;10.90;99.90
8332;DHT22;4203;48.144;14.118;2023-05-10T05:02:45;11.20;99.90
8332;DHT22;4203;48.144;14.118;2023-05-10T05:05:12;11.40;99.90
8332;DHT22;4203;48.144;14.118;2023-05-10T05:07:40;11.40;99.90
8332;DHT22;4203;48.144;14.118;2023-05-10T05:10:09;11.50;99.90
8332;DHT22;4203;48.144;14.118;2023-05-10T05:12:36;11.60;99.90
8332;DHT22;4203;48.144;14.118;2023-05-10T05:15:04;11.60;99.90
8332;DHT22;4203;48.144;14.118;2023-05-10T05:17:31;11.70;99.90
8332;DHT22;4203;48.144;14.118;2023-05-10T05:19:58;11.70;99.90
8332;DHT22;4203;48.144;14.118;2023-05-10T05:22:25;11.80;99.90
8332;DHT22;4203;48.144;14.118;2023-05-10T05:24:53;11.80;99.90
8332;DHT22;4203;48.144;14.118;2023-05-10T05:27:22;11.80;99.90
8332;DHT22;4203;48.144;14.118;2023-05-10T05:29:52;11.70;99.90
8332;DHT22;4203;48.144;14.118;2023-05-10T05:32:19;11.80;99.90
8332;DHT22;4203;48.144;14.118;2023-05-10T05:34:47;11.70;99.90
8332;DHT22;4203;48.144;14.118;2023-05-10T05:37:15;11.80;99.90
8332;DHT22;4203;48.144;14.118;2023-05-10T05:39:42;11.80;99.90
8332;DHT22;4203;48.144;14.118;2023-05-10T05:42:09;11.80;99.90
8332;DHT22;4203;48.144;14.118;2023-05-10T05:44:38;11.80;99.90
8332;DHT22;4203;48.144;14.118;2023-05-10T05:47:06;11.70;99.90
8332;DHT22;4203;48.144;14.118;2023-05-10T05:49:33;11.60;99.90
8332;DHT22;4203;48.144;14.118;2023-05-10T05:52:00;11.70;99.90
8332;DHT22;4203;48.144;14.118;2023-05-10T05:54:28;11.60;99.90
8332;DHT22;4203;48.144;14.118;2023-05-10T05:56:55;11.60;99.90
8332;DHT22;4203;48.144;14.118;2023-05-10T05:59:23;11.60;99.90
8332;DHT22;4203;48.144;14.118;2023-05-10T06:01:52;11.60;99.90
8332;DHT22;4203;48.144;14.118;2023-05-10T06:04:19;11.60;99.90
8332;DHT22;4203;48.144;14.118;2023-05-10T06:06:47;11.60;99.90
8332;DHT22;4203;48.144;14.118;2023-05-10T06:09:15;11.60;99.90
8332;DHT22;4203;48.144;14.118;2023-05-10T06:11:42;11.60;99.90
8332;DHT22;4203;48.144;14.118;2023-05-10T06:14:09;11.70;99.90
8332;DHT22;4203;48.144;14.118;2023-05-10T06:16:36;11.70;99.90
8332;DHT22;4203;48.144;14.118;2023-05-10T06:19:05;11.80;99.90
8332;DHT22;4203;48.144;14.118;2023-05-10T06:21:32;11.90;99.90
8332;DHT22;4203;48.144;14.118;2023-05-10T06:23:59;12.00;99.90
8332;DHT22;4203;48.144;14.118;2023-05-10T06:26:26;12.00;99.90
8332;DHT22;4203;48.144;14.118;2023-05-10T06:28:53;12.00;99.90
8332;DHT22;4203;48.144;14.118;2023-05-10T06:31:21;12.10;99.90
8332;DHT22;4203;48.144;14.118;2023-05-10T06:33:48;12.20;99.90
8332;DHT22;4203;48.144;14.118;2023-05-10T06:36:16;12.30;99.90
8332;DHT22;4203;48.144;14.118;2023-05-10T06:38:43;12.40;99.90
8332;DHT22;4203;48.144;14.118;2023-05-10T06:41:11;12.50;99.90
8332;DHT22;4203;48.144;14.118;2023-05-10T06:43:38;12.60;99.90
8332;DHT22;4203;48.144;14.118;2023-05-10T06:46:06;12.70;99.90
8332;DHT22;4203;48.144;14.118;2023-05-10T06:48:34;12.80;99.90
8332;DHT22;4203;48.144;14.118;2023-05-10T06:51:01;12.80;99.90
8332;DHT22;4203;48.144;14.118;2023-05-10T06:53:29;12.90;99.90
8332;DHT22;4203;48.144;14.118;2023-05-10T06:55:56;12.90;99.90
8332;DHT22;4203;48.144;14.118;2023-05-10T06:58:24;13.00;99.90
8332;DHT22;4203;48.144;14.118;2023-05-10T07:01:02;13.00;99.90
8332;DHT22;4203;48.144;14.118;2023-05-10T07:03:29;13.10;99.90
8332;DHT22;4203;48.144;14.118;2023-05-10T07:06:00;13.10;99.90
8332;DHT22;4203;48.144;14.118;2023-05-10T07:08:31;13.10;99.90
8332;DHT22;4203;48.144;14.118;2023-05-10T07:11:00;13.20;99.90
8332;DHT22;4203;48.144;14.118;2023-05-10T07:13:27;13.20;99.90
8332;DHT22;4203;48.144;14.118;2023-05-10T07:15:54;13.30;99.90
8332;DHT22;4203;48.144;14.118;2023-05-10T07:18:21;13.40;99.90
8332;DHT22;4203;48.144;14.118;2023-05-10T07:20:49;13.50;99.90
8332;DHT22;4203;48.144;14.118;2023-05-10T07:23:16;13.60;99.90
8332;DHT22;4203;48.144;14.118;2023-05-10T07:25:46;13.60;99.90
8332;DHT22;4203;48.144;14.118;2023-05-10T07:28:14;13.60;99.90
8332;DHT22;4203;48.144;14.118;2023-05-10T07:30:41;13.50;99.90
8332;DHT22;4203;48.144;14.118;2023-05-10T07:33:10;13.50;99.90
8332;DHT22;4203;48.144;14.118;2023-05-10T07:35:37;13.60;99.90
8332;DHT22;4203;48.144;14.118;2023-05-10T07:38:04;13.60;99.90
8332;DHT22;4203;48.144;14.118;2023-05-10T07:40:33;13.60;99.90
8332;DHT22;4203;48.144;14.118;2023-05-10T07:43:01;13.50;99.90
8332;DHT22;4203;48.144;14.118;2023-05-10T07:45:28;13.60;99.90
8332;DHT22;4203;48.144;14.118;2023-05-10T07:47:56;13.50;99.90
8332;DHT22;4203;48.144;14.118;2023-05-10T07:50:23;13.50;99.90
8332;DHT22;4203;48.144;14.118;2023-05-10T07:52:50;13.50;99.90
8332;DHT22;4203;48.144;14.118;2023-05-10T07:55:18;13.50;99.90
8332;DHT22;4203;48.144;14.118;2023-05-10T07:57:46;13.60;99.90
8332;DHT22;4203;48.144;14.118;2023-05-10T08:00:19;13.60;99.90
8332;DHT22;4203;48.144;14.118;2023-05-10T08:02:47;13.70;99.90
8332;DHT22;4203;48.144;14.118;2023-05-10T08:05:14;13.90;99.90
8332;DHT22;4203;48.144;14.118;2023-05-10T08:07:41;14.00;99.90
8332;DHT22;4203;48.144;14.118;2023-05-10T08:10:09;14.20;99.90
8332;DHT22;4203;48.144;14.118;2023-05-10T08:12:38;14.20;99.90
8332;DHT22;4203;48.144;14.118;2023-05-10T08:15:06;14.30;99.90
8332;DHT22;4203;48.144;14.118;2023-05-10T08:17:35;14.30;99.90
8332;DHT22;4203;48.144;14.118;2023-05-10T08:20:02;14.40;99.90
8332;DHT22;4203;48.144;14.118;2023-05-10T08:22:29;14.40;99.90
8332;DHT22;4203;48.144;14.118;2023-05-10T08:24:56;14.30;99.90
8332;DHT22;4203;48.144;14.118;2023-05-10T08:27:23;14.30;99.90
8332;DHT22;4203;48.144;14.118;2023-05-10T08:29:51;14.40;99.90
8332;DHT22;4203;48.144;14.118;2023-05-10T08:32:18;14.50;99.90
8332;DHT22;4203;48.144;14.118;2023-05-10T08:34:47;14.50;99.90
8332;DHT22;4203;48.144;14.118;2023-05-10T08:37:14;14.40;99.90
8332;DHT22;4203;48.144;14.118;2023-05-10T08:39:43;14.50;99.90
8332;DHT22;4203;48.144;14.118;2023-05-10T08:42:12;14.40;99.90
8332;DHT22;4203;48.144;14.118;2023-05-10T08:44:42;14.50;99.90
8332;DHT22;4203;48.144;14.118;2023-05-10T08:47:09;14.40;99.90
8332;DHT22;4203;48.144;14.118;2023-05-10T08:49:37;14.40;99.90
8332;DHT22;4203;48.144;14.118;2023-05-10T08:52:06;14.40;99.90
8332;DHT22;4203;48.144;14.118;2023-05-10T08:54:34;14.50;99.90
8332;DHT22;4203;48.144;14.118;2023-05-10T08:57:01;14.40;99.90
8332;DHT22;4203;48.144;14.118;2023-05-10T08:59:29;14.50;99.90
8332;DHT22;4203;48.144;14.118;2023-05-10T09:01:57;14.40;99.90
8332;DHT22;4203;48.144;14.118;2023-05-10T09:04:25;14.50;99.90
8332;DHT22;4203;48.144;14.118;2023-05-10T09:06:52;14.50;99.90
8332;DHT22;4203;48.144;14.118;2023-05-10T09:09:21;14.70;99.90
8332;DHT22;4203;48.144;14.118;2023-05-10T09:11:50;14.90;99.90
8332;DHT22;4203;48.144;14.118;2023-05-10T09:14:18;14.90;99.90
8332;DHT22;4203;48.144;14.118;2023-05-10T09:16:47;14.90;99.90
8332;DHT22;4203;48.144;14.118;2023-05-10T09:19:14;15.00;99.90
8332;DHT22;4203;48.144;14.118;2023-05-10T09:21:41;15.20;99.90
8332;DHT22;4203;48.144;14.118;2023-05-10T09:24:08;15.10;99.90
8332;DHT22;4203;48.144;14.118;2023-05-10T09:26:46;15.00;99.90
8332;DHT22;4203;48.144;14.118;2023-05-10T09:29:14;15.00;99.90
8332;DHT22;4203;48.144;14.118;2023-05-10T09:31:46;15.10;99.90
8332;DHT22;4203;48.144;14.118;2023-05-10T09:34:16;15.20;99.90
8332;DHT22;4203;48.144;14.118;2023-05-10T09:36:52;15.20;99.90
8332;DHT22;4203;48.144;14.118;2023-05-10T09:39:20;15.00;99.90
8332;DHT22;4203;48.144;14.118;2023-05-10T09:41:49;14.80;99.90
8332;DHT22;4203;48.144;14.118;2023-05-10T09:44:19;14.70;99.90
8332;DHT22;4203;48.144;14.118;2023-05-10T09:46:50;14.60;99.90
8332;DHT22;4203;48.144;14.118;2023-05-10T09:49:18;14.60;99.90
8332;DHT22;4203;48.144;14.118;2023-05-10T09:51:46;14.70;99.90
8332;DHT22;4203;48.144;14.118;2023-05-10T09:54:14;14.70;99.90
8332;DHT22;4203;48.144;14.118;2023-05-10T09:56:42;14.90;99.90
8332;DHT22;4203;48.144;14.118;2023-05-10T09:59:12;15.10;99.90
8332;DHT22;4203;48.144;14.118;2023-05-10T10:01:39;15.20;99.90
8332;DHT22;4203;48.144;14.118;2023-05-10T10:04:09;15.40;99.90
8332;DHT22;4203;48.144;14.118;2023-05-10T10:06:37;15.60;99.90
8332;DHT22;4203;48.144;14.118;2023-05-10T10:09:04;15.60;99.90
8332;DHT22;4203;48.144;14.118;2023-05-10T10:11:36;15.90;99.90
8332;DHT22;4203;48.144;14.118;2023-05-10T10:14:03;16.20;99.90
8332;DHT22;4203;48.144;14.118;2023-05-10T10:16:32;16.40;99.90
8332;DHT22;4203;48.144;14.118;2023-05-10T10:18:59;16.60;99.90
8332;DHT22;4203;48.144;14.118;2023-05-10T10:21:27;16.60;99.90
8332;DHT22;4203;48.144;14.118;2023-05-10T10:23:55;16.70;99.90
8332;DHT22;4203;48.144;14.118;2023-05-10T10:26:22;17.00;99.90
8332;DHT22;4203;48.144;14.118;2023-05-10T10:29:00;17.10;99.90
8332;DHT22;4203;48.144;14.118;2023-05-10T10:31:38;17.00;99.90
8332;DHT22;4203;48.144;14.118;2023-05-10T10:34:09;16.90;99.90
8332;DHT22;4203;48.144;14.118;2023-05-10T10:36:44;16.80;99.90
8332;DHT22;4203;48.144;14.118;2023-05-10T10:39:12;16.80;99.90
8332;DHT22;4203;48.144;14.118;2023-05-10T10:41:50;16.70;99.90
8332;DHT22;4203;48.144;14.118;2023-05-10T10:44:25;16.40;99.90
8332;DHT22;4203;48.144;14.118;2023-05-10T10:47:07;16.10;99.90
8332;DHT22;4203;48.144;14.118;2023-05-10T10:49:45;15.80;99.90
8332;DHT22;4203;48.144;14.118;2023-05-10T10:52:21;15.50;99.90
8332;DHT22;4203;48.144;14.118;2023-05-10T10:54:51;15.40;99.90
8332;DHT22;4203;48.144;14.118;2023-05-10T10:57:20;15.30;99.90
8332;DHT22;4203;48.144;14.118;2023-05-10T10:59:49;15.30;99.90
8332;DHT22;4203;48.144;14.118;2023-05-10T11:02:43;15.20;99.90
8332;DHT22;4203;48.144;14.118;2023-05-10T11:05:41;15.10;99.90
8332;DHT22;4203;48.144;14.118;2023-05-10T11:08:11;15.10;99.90
8332;DHT22;4203;48.144;14.118;2023-05-10T11:10:39;15.00;99.90
8332;DHT22;4203;48.144;14.118;2023-05-10T11:13:08;14.90;99.90
8332;DHT22;4203;48.144;14.118;2023-05-10T11:15:38;14.90;99.90
8332;DHT22;4203;48.144;14.118;2023-05-10T11:18:20;14.90;99.90
8332;DHT22;4203;48.144;14.118;2023-05-10T11:20:50;15.10;99.90
8332;DHT22;4203;48.144;14.118;2023-05-10T11:23:18;15.30;99.90
8332;DHT22;4203;48.144;14.118;2023-05-10T11:25:48;15.60;99.90
8332;DHT22;4203;48.144;14.118;2023-05-10T11:28:17;15.70;99.90
8332;DHT22;4203;48.144;14.118;2023-05-10T11:30:45;15.70;99.90
8332;DHT22;4203;48.144;14.118;2023-05-10T11:33:16;15.70;99.90
8332;DHT22;4203;48.144;14.118;2023-05-10T11:35:45;15.60;99.90
8332;DHT22;4203;48.144;14.118;2023-05-10T11:38:12;15.40;99.90
8332;DHT22;4203;48.144;14.118;2023-05-10T11:40:40;15.10;99.90
8332;DHT22;4203;48.144;14.118;2023-05-10T11:43:09;15.10;99.90
8332;DHT22;4203;48.144;14.118;2023-05-10T11:45:37;15.20;99.90
8332;DHT22;4203;48.144;14.118;2023-05-10T11:48:04;15.40;99.90
8332;DHT22;4203;48.144;14.118;2023-05-10T11:50:31;15.40;99.90
8332;DHT22;4203;48.144;14.118;2023-05-10T11:53:00;15.30;99.90
8332;DHT22;4203;48.144;14.118;2023-05-10T11:55:27;15.20;99.90
8332;DHT22;4203;48.144;14.118;2023-05-10T11:58:00;15.10;99.90
8332;DHT22;4203;48.144;14.118;2023-05-10T12:00:28;15.10;99.90
8332;DHT22;4203;48.144;14.118;2023-05-10T12:02:56;15.10;99.90
8332;DHT22;4203;48.144;14.118;2023-05-10T12:05:23;15.00;99.90
8332;DHT22;4203;48.144;14.118;2023-05-10T12:07:51;14.90;99.90
8332;DHT22;4203;48.144;14.118;2023-05-10T12:10:26;15.00;99.90
8332;DHT22;4203;48.144;14.118;2023-05-10T12:12:53;15.10;99.90
8332;DHT22;4203;48.144;14.118;2023-05-10T12:15:22;15.20;99.90
8332;DHT22;4203;48.144;14.118;2023-05-10T12:17:50;15.20;99.90
8332;DHT22;4203;48.144;14.118;2023-05-10T12:20:18;15.00;99.90
8332;DHT22;4203;48.144;14.118;2023-05-10T12:22:47;14.90;99.90
8332;DHT22;4203;48.144;14.118;2023-05-10T12:25:16;15.00;99.90
8332;DHT22;4203;48.144;14.118;2023-05-10T12:27:51;15.10;99.90
8332;DHT22;4203;48.144;14.118;2023-05-10T12:30:20;15.00;99.90
8332;DHT22;4203;48.144;14.118;2023-05-10T12:32:48;14.90;99.90
8332;DHT22;4203;48.144;14.118;2023-05-10T12:35:15;14.90;99.90
8332;DHT22;4203;48.144;14.118;2023-05-10T12:37:46;14.80;99.90
8332;DHT22;4203;48.144;14.118;2023-05-10T12:40:14;14.70;99.90
8332;DHT22;4203;48.144;14.118;2023-05-10T12:42:41;14.50;99.90
8332;DHT22;4203;48.144;14.118;2023-05-10T12:45:12;14.40;99.90
8332;DHT22;4203;48.144;14.118;2023-05-10T12:47:39;14.50;99.90
8332;DHT22;4203;48.144;14.118;2023-05-10T12:50:07;14.60;99.90
8332;DHT22;4203;48.144;14.118;2023-05-10T12:52:34;14.90;99.90
8332;DHT22;4203;48.144;14.118;2023-05-10T12:55:01;15.20;99.90
8332;DHT22;4203;48.144;14.118;2023-05-10T12:57:29;15.60;99.90
8332;DHT22;4203;48.144;14.118;2023-05-10T12:59:56;15.80;99.90
8332;DHT22;4203;48.144;14.118;2023-05-10T13:02:24;16.00;99.90
8332;DHT22;4203;48.144;14.118;2023-05-10T13:04:52;16.00;99.90
8332;DHT22;4203;48.144;14.118;2023-05-10T13:07:19;15.80;99.90
8332;DHT22;4203;48.144;14.118;2023-05-10T13:09:48;15.70;99.90
8332;DHT22;4203;48.144;14.118;2023-05-10T13:12:15;15.70;99.90
8332;DHT22;4203;48.144;14.118;2023-05-10T13:14:42;15.80;99.90
8332;DHT22;4203;48.144;14.118;2023-05-10T13:17:09;15.90;99.90
8332;DHT22;4203;48.144;14.118;2023-05-10T13:19:38;16.00;99.90
8332;DHT22;4203;48.144;14.118;2023-05-10T13:22:05;16.10;99.90
8332;DHT22;4203;48.144;14.118;2023-05-10T13:24:32;16.00;99.90
8332;DHT22;4203;48.144;14.118;2023-05-10T13:26:59;15.80;99.90
8332;DHT22;4203;48.144;14.118;2023-05-10T13:29:27;15.70;99.90
8332;DHT22;4203;48.144;14.118;2023-05-10T13:31:54;15.50;99.90
8332;DHT22;4203;48.144;14.118;2023-05-10T13:34:21;15.50;99.90
8332;DHT22;4203;48.144;14.118;2023-05-10T13:36:51;15.60;99.90
8332;DHT22;4203;48.144;14.118;2023-05-10T13:39:20;15.50;99.90
8332;DHT22;4203;48.144;14.118;2023-05-10T13:41:47;15.50;99.90
8332;DHT22;4203;48.144;14.118;2023-05-10T13:44:15;15.70;99.90
8332;DHT22;4203;48.144;14.118;2023-05-10T13:46:42;15.70;99.90
8332;DHT22;4203;48.144;14.118;2023-05-10T13:49:11;15.80;99.90
8332;DHT22;4203;48.144;14.118;2023-05-10T13:51:39;15.90;99.90
8332;DHT22;4203;48.144;14.118;2023-05-10T13:54:07;16.00;99.90
8332;DHT22;4203;48.144;14.118;2023-05-10T13:56:35;16.00;99.90
8332;DHT22;4203;48.144;14.118;2023-05-10T13:59:02;16.20;99.90
8332;DHT22;4203;48.144;14.118;2023-05-10T14:01:29;16.40;99.90
8332;DHT22;4203;48.144;14.118;2023-05-10T14:03:57;16.40;99.90
8332;DHT22;4203;48.144;14.118;2023-05-10T14:06:24;16.00;99.90
8332;DHT22;4203;48.144;14.118;2023-05-10T14:08:52;15.90;99.90
8332;DHT22;4203;48.144;14.118;2023-05-10T14:11:22;15.80;99.90
8332;DHT22;4203;48.144;14.118;2023-05-10T14:13:49;15.90;99.90
8332;DHT22;4203;48.144;14.118;2023-05-10T14:16:16;15.90;99.90
8332;DHT22;4203;48.144;14.118;2023-05-10T14:18:43;15.80;99.90
8332;DHT22;4203;48.144;14.118;2023-05-10T14:21:12;15.80;99.90
8332;DHT22;4203;48.144;14.118;2023-05-10T14:23:39;15.80;99.90
8332;DHT22;4203;48.144;14.118;2023-05-10T14:26:06;16.00;99.90
8332;DHT22;4203;48.144;14.118;2023-05-10T14:28:35;16.10;99.90
8332;DHT22;4203;48.144;14.118;2023-05-10T14:31:02;16.00;99.90
8332;DHT22;4203;48.144;14.118;2023-05-10T14:33:31;15.90;99.90
8332;DHT22;4203;48.144;14.118;2023-05-10T14:35:58;15.80;99.90
8332;DHT22;4203;48.144;14.118;2023-05-10T14:38:25;15.80;99.90
8332;DHT22;4203;48.144;14.118;2023-05-10T14:40:54;16.00;99.90
8332;DHT22;4203;48.144;14.118;2023-05-10T14:43:21;15.90;99.90
8332;DHT22;4203;48.144;14.118;2023-05-10T14:45:50;16.20;99.90
8332;DHT22;4203;48.144;14.118;2023-05-10T14:48:17;16.20;99.90
8332;DHT22;4203;48.144;14.118;2023-05-10T14:50:45;16.30;99.90
8332;DHT22;4203;48.144;14.118;2023-05-10T14:53:12;16.10;99.90
8332;DHT22;4203;48.144;14.118;2023-05-10T14:55:39;16.30;99.90
8332;DHT22;4203;48.144;14.118;2023-05-10T14:58:07;16.50;99.90
8332;DHT22;4203;48.144;14.118;2023-05-10T15:00:34;16.50;99.90
8332;DHT22;4203;48.144;14.118;2023-05-10T15:03:03;16.30;99.90
8332;DHT22;4203;48.144;14.118;2023-05-10T15:05:30;16.20;99.90
8332;DHT22;4203;48.144;14.118;2023-05-10T15:07:57;16.00;99.90
8332;DHT22;4203;48.144;14.118;2023-05-10T15:10:25;15.90;99.90
8332;DHT22;4203;48.144;14.118;2023-05-10T15:12:52;15.90;99.90
8332;DHT22;4203;48.144;14.118;2023-05-10T15:15:19;16.00;99.90
8332;DHT22;4203;48.144;14.118;2023-05-10T15:17:47;16.00;99.90
8332;DHT22;4203;48.144;14.118;2023-05-10T15:20:16;16.00;99.90
8332;DHT22;4203;48.144;14.118;2023-05-10T15:22:43;16.00;99.90
8332;DHT22;4203;48.144;14.118;2023-05-10T15:25:10;15.90;99.90
8332;DHT22;4203;48.144;14.118;2023-05-10T15:27:37;15.70;99.90
8332;DHT22;4203;48.144;14.118;2023-05-10T15:30:06;15.60;99.90
8332;DHT22;4203;48.144;14.118;2023-05-10T15:32:33;15.50;99.90
8332;DHT22;4203;48.144;14.118;2023-05-10T15:35:01;15.60;99.90
8332;DHT22;4203;48.144;14.118;2023-05-10T15:37:29;15.60;99.90
8332;DHT22;4203;48.144;14.118;2023-05-10T15:39:57;15.70;99.90
8332;DHT22;4203;48.144;14.118;2023-05-10T15:42:29;15.80;99.90
8332;DHT22;4203;48.144;14.118;2023-05-10T15:44:57;15.80;99.90
8332;DHT22;4203;48.144;14.118;2023-05-10T15:47:25;15.90;99.90
8332;DHT22;4203;48.144;14.118;2023-05-10T15:49:53;15.90;99.90
8332;DHT22;4203;48.144;14.118;2023-05-10T15:52:20;15.80;99.90
8332;DHT22;4203;48.144;14.118;2023-05-10T15:54:50;15.90;99.90
8332;DHT22;4203;48.144;14.118;2023-05-10T15:57:17;16.00;99.90
8332;DHT22;4203;48.144;14.118;2023-05-10T15:59:44;16.20;99.90
8332;DHT22;4203;48.144;14.118;2023-05-10T16:02:11;16.20;99.90
8332;DHT22;4203;48.144;14.118;2023-05-10T16:04:39;16.10;99.90